Time;durP1;ratioP1;P1;durP2;ratioP2;P2;SDS_P1;SDS_P2;PMS_P1;PMS_P2;Temp;Humidity;BMP_temperature;BMP_pressure;BME280_temperature;BME280_humidity;BME280_pressure;Samples;Min_cycle;Max_cycle;Signal;HPM_P1;HPM_P2
2024/01/28 00:00:40;;;;;;;;;;;2.10;88.40;;;;;;5007074;28;87110;-48
2024/01/28 00:03:06;;;;;;;;;;;2.10;88.40;;;;;;5006506;28;87050;-49
2024/01/28 00:05:32;;;;;;;;;;;2.00;88.40;;;;;;5009743;28;87331;-50
2024/01/28 00:07:58;;;;;;;;;;;2.10;88.50;;;;;;5004765;28;87871;-47
2024/01/28 00:10:24;;;;;;;;;;;2.00;88.40;;;;;;5002863;28;87281;-51
2024/01/28 00:12:50;;;;;;;;;;;2.10;88.40;;;;;;5007506;28;86208;-51
2024/01/28 00:15:16;;;;;;;;;;;2.10;88.40;;;;;;5006453;28;87128;-51
2024/01/28 00:17:41;;;;;;;;;;;2.10;88.30;;;;;;4998388;28;87414;-48
2024/01/28 00:20:07;;;;;;;;;;;2.00;88.30;;;;;;5006325;28;88425;-52
2024/01/28 00:22:33;;;;;;;;;;;2.00;88.30;;;;;;5006256;28;88807;-48
2024/01/28 00:24:58;;;;;;;;;;;2.00;88.30;;;;;;5006058;28;87628;-50
2024/01/28 00:27:24;;;;;;;;;;;2.00;88.30;;;;;;5009179;28;87038;-49
2024/01/28 00:29:50;;;;;;;;;;;2.00;88.30;;;;;;5006436;28;86910;-49
2024/01/28 00:32:15;;;;;;;;;;;2.10;88.20;;;;;;5001536;28;87025;-50
2024/01/28 00:34:41;;;;;;;;;;;2.00;88.30;;;;;;5006754;28;86966;-49
2024/01/28 00:37:06;;;;;;;;;;;2.00;88.30;;;;;;5006907;28;86749;-51
2024/01/28 00:39:32;;;;;;;;;;;2.00;88.30;;;;;;5004787;28;87065;-53
2024/01/28 00:41:58;;;;;;;;;;;2.00;88.40;;;;;;5006329;28;87831;-50
2024/01/28 00:44:24;;;;;;;;;;;2.00;88.30;;;;;;5005667;28;88384;-49
2024/01/28 00:46:49;;;;;;;;;;;2.00;88.40;;;;;;5006498;28;87116;-49
2024/01/28 00:49:15;;;;;;;;;;;2.00;88.40;;;;;;5005683;28;87049;-51
2024/01/28 00:51:40;;;;;;;;;;;2.00;88.30;;;;;;5002717;28;87002;-50
2024/01/28 00:54:06;;;;;;;;;;;2.00;88.40;;;;;;5006569;28;86982;-49
2024/01/28 00:56:31;;;;;;;;;;;2.00;88.30;;;;;;5003065;28;87559;-50
2024/01/28 00:58:57;;;;;;;;;;;2.00;88.30;;;;;;5001132;28;87512;-50
2024/01/28 01:01:22;;;;;;;;;;;2.00;88.40;;;;;;5006845;28;87202;-49
2024/01/28 01:03:48;;;;;;;;;;;2.00;88.40;;;;;;5003133;28;88425;-49
2024/01/28 01:06:14;;;;;;;;;;;2.00;88.40;;;;;;5004931;28;87047;-51
2024/01/28 01:08:39;;;;;;;;;;;2.00;88.30;;;;;;5004174;28;87881;-51
2024/01/28 01:11:08;;;;;;;;;;;2.00;88.30;;;;;;5008532;28;87519;-48
2024/01/28 01:13:33;;;;;;;;;;;2.00;88.30;;;;;;5004977;28;89771;-49
2024/01/28 01:15:59;;;;;;;;;;;2.00;88.30;;;;;;5005885;28;86878;-51
2024/01/28 01:18:25;;;;;;;;;;;2.00;88.30;;;;;;5002471;28;87871;-48
2024/01/28 01:20:51;;;;;;;;;;;2.00;88.20;;;;;;5008454;28;86899;-49
2024/01/28 01:23:16;;;;;;;;;;;2.00;88.30;;;;;;5008347;28;87419;-50
2024/01/28 01:25:42;;;;;;;;;;;2.00;88.30;;;;;;5009189;28;86431;-50
2024/01/28 01:28:08;;;;;;;;;;;2.00;88.20;;;;;;5009374;28;87145;-49
2024/01/28 01:30:33;;;;;;;;;;;2.00;88.20;;;;;;5009274;28;87541;-48
2024/01/28 01:32:59;;;;;;;;;;;2.00;88.20;;;;;;5010857;28;87944;-49
2024/01/28 01:35:26;;;;;;;;;;;2.00;88.30;;;;;;5009111;28;86864;-48
2024/01/28 01:37:54;;;;;;;;;;;2.00;88.20;;;;;;5009124;28;87010;-50
2024/01/28 01:40:20;;;;;;;;;;;2.00;88.20;;;;;;5005417;28;88025;-49
2024/01/28 01:42:45;;;;;;;;;;;2.00;88.10;;;;;;5009037;28;87472;-50
2024/01/28 01:45:12;;;;;;;;;;;2.00;88.30;;;;;;5009151;28;87072;-49
2024/01/28 01:47:37;;;;;;;;;;;2.00;88.40;;;;;;5008349;28;86970;-48
2024/01/28 01:50:04;;;;;;;;;;;2.00;88.30;;;;;;5008240;28;86924;-52
2024/01/28 01:52:30;;;;;;;;;;;2.00;88.30;;;;;;5011952;28;86982;-49
2024/01/28 01:54:56;;;;;;;;;;;2.00;88.40;;;;;;5008389;28;87462;-48
2024/01/28 01:57:21;;;;;;;;;;;2.00;88.40;;;;;;5007673;28;88048;-49
2024/01/28 01:59:48;;;;;;;;;;;2.00;88.30;;;;;;5008275;28;87565;-49
2024/01/28 02:02:15;;;;;;;;;;;1.90;88.20;;;;;;5007425;28;88455;-49
2024/01/28 02:04:40;;;;;;;;;;;1.90;88.20;;;;;;5007522;28;86978;-49
2024/01/28 02:07:06;;;;;;;;;;;1.90;88.30;;;;;;5009121;28;87030;-52
2024/01/28 02:09:34;;;;;;;;;;;1.90;88.30;;;;;;5007959;28;88595;-49
2024/01/28 02:12:00;;;;;;;;;;;1.90;88.10;;;;;;5008904;28;87008;-49
2024/01/28 02:14:29;;;;;;;;;;;1.90;88.20;;;;;;5011790;28;86819;-49
2024/01/28 02:16:55;;;;;;;;;;;2.00;88.30;;;;;;5004956;28;87047;-49
2024/01/28 02:19:20;;;;;;;;;;;2.00;88.30;;;;;;5008411;28;86977;-48
2024/01/28 02:21:46;;;;;;;;;;;1.90;88.20;;;;;;5007049;28;89499;-50
2024/01/28 02:24:15;;;;;;;;;;;1.90;88.30;;;;;;5001973;28;87054;-50
2024/01/28 02:26:40;;;;;;;;;;;1.90;88.20;;;;;;5007475;28;86894;-50
2024/01/28 02:29:06;;;;;;;;;;;1.90;88.20;;;;;;5007581;28;87391;-51
2024/01/28 02:31:32;;;;;;;;;;;1.90;88.20;;;;;;5006794;28;87055;-49
2024/01/28 02:33:58;;;;;;;;;;;1.90;88.20;;;;;;5007679;28;86956;-50
2024/01/28 02:36:27;;;;;;;;;;;1.90;88.00;;;;;;5007209;28;89002;-53
2024/01/28 02:38:54;;;;;;;;;;;1.90;88.10;;;;;;5005273;28;87669;-48
2024/01/28 02:41:20;;;;;;;;;;;1.90;88.10;;;;;;5007827;28;87771;-50
2024/01/28 02:43:46;;;;;;;;;;;1.90;88.20;;;;;;5008400;28;86903;-48
2024/01/28 02:46:11;;;;;;;;;;;2.00;88.10;;;;;;5005873;28;88011;-50
2024/01/28 02:48:37;;;;;;;;;;;1.90;88.10;;;;;;5007486;28;88546;-49
2024/01/28 02:51:02;;;;;;;;;;;1.90;88.10;;;;;;5004941;28;87027;-51
2024/01/28 02:53:28;;;;;;;;;;;1.90;88.10;;;;;;5005667;28;88005;-50
2024/01/28 02:55:59;;;;;;;;;;;1.90;88.20;;;;;;5006373;28;88034;-48
2024/01/28 02:58:25;;;;;;;;;;;1.90;88.20;;;;;;5008318;28;87298;-49
2024/01/28 03:00:50;;;;;;;;;;;1.90;88.10;;;;;;5007352;28;87643;-48
2024/01/28 03:03:16;;;;;;;;;;;1.90;88.00;;;;;;5007622;28;86385;-49
2024/01/28 03:05:42;;;;;;;;;;;1.90;88.00;;;;;;5007507;28;86873;-48
2024/01/28 03:08:07;;;;;;;;;;;1.90;88.10;;;;;;5007833;28;87478;-49
2024/01/28 03:10:33;;;;;;;;;;;1.90;88.10;;;;;;5006807;28;88067;-49
2024/01/28 03:12:58;;;;;;;;;;;1.90;88.00;;;;;;5006641;28;89524;-48
2024/01/28 03:15:24;;;;;;;;;;;1.90;88.00;;;;;;5006269;28;87334;-49
2024/01/28 03:17:49;;;;;;;;;;;1.90;88.10;;;;;;5007614;28;87109;-49
2024/01/28 03:20:19;;;;;;;;;;;1.90;88.10;;;;;;5006794;28;87108;-49
2024/01/28 03:22:44;;;;;;;;;;;1.90;88.10;;;;;;5004484;28;86942;-50
2024/01/28 03:25:12;;;;;;;;;;;1.90;87.90;;;;;;5007616;28;87967;-49
2024/01/28 03:27:38;;;;;;;;;;;1.90;88.10;;;;;;5007441;28;88146;-49
2024/01/28 03:30:04;;;;;;;;;;;1.90;88.10;;;;;;5007402;28;87051;-49
2024/01/28 03:32:30;;;;;;;;;;;1.90;88.10;;;;;;5007528;28;88130;-48
2024/01/28 03:34:56;;;;;;;;;;;1.90;88.10;;;;;;5003953;28;88398;-49
2024/01/28 03:37:21;;;;;;;;;;;1.90;88.20;;;;;;5007641;28;87105;-49
2024/01/28 03:39:47;;;;;;;;;;;1.90;88.20;;;;;;5009993;28;87016;-52
2024/01/28 03:42:12;;;;;;;;;;;1.80;88.30;;;;;;5007397;28;86942;-50
2024/01/28 03:44:38;;;;;;;;;;;1.80;88.20;;;;;;5007004;28;87014;-50
2024/01/28 03:47:04;;;;;;;;;;;1.80;88.10;;;;;;5006694;28;87630;-50
2024/01/28 03:49:29;;;;;;;;;;;1.90;88.20;;;;;;5007186;28;87013;-49
2024/01/28 03:51:55;;;;;;;;;;;1.80;88.10;;;;;;5005372;28;86873;-48
2024/01/28 03:54:20;;;;;;;;;;;1.80;88.10;;;;;;4997025;28;87593;-49
2024/01/28 03:56:46;;;;;;;;;;;1.80;88.10;;;;;;5006994;28;86997;-53
2024/01/28 03:59:13;;;;;;;;;;;1.80;88.10;;;;;;5006846;28;87908;-51
2024/01/28 04:01:39;;;;;;;;;;;1.80;88.00;;;;;;5009528;28;88436;-51
2024/01/28 04:04:05;;;;;;;;;;;1.80;88.00;;;;;;5006967;28;87898;-49
2024/01/28 04:06:30;;;;;;;;;;;1.80;87.90;;;;;;5004089;28;87560;-48
2024/01/28 04:08:56;;;;;;;;;;;1.80;88.00;;;;;;5006752;28;87019;-50
2024/01/28 04:11:27;;;;;;;;;;;1.80;88.00;;;;;;5007328;28;86923;-48
2024/01/28 04:13:54;;;;;;;;;;;1.80;88.10;;;;;;5003132;28;88627;-49
2024/01/28 04:16:23;;;;;;;;;;;1.80;87.90;;;;;;5007282;28;86257;-50
2024/01/28 04:18:49;;;;;;;;;;;1.80;87.90;;;;;;5006978;28;86987;-49
2024/01/28 04:21:15;;;;;;;;;;;1.90;88.00;;;;;;5006125;28;86878;-51
2024/01/28 04:23:40;;;;;;;;;;;1.80;87.90;;;;;;5008872;28;87861;-49
2024/01/28 04:26:06;;;;;;;;;;;1.80;87.80;;;;;;5006376;28;87563;-47
2024/01/28 04:28:32;;;;;;;;;;;1.80;87.90;;;;;;5005366;28;87284;-49
2024/01/28 04:30:58;;;;;;;;;;;1.80;88.00;;;;;;5005864;28;86970;-52
2024/01/28 04:33:24;;;;;;;;;;;1.80;87.90;;;;;;5006547;28;87434;-50
2024/01/28 04:35:50;;;;;;;;;;;1.80;87.90;;;;;;5005933;28;87030;-49
2024/01/28 04:38:15;;;;;;;;;;;1.80;87.90;;;;;;5006900;28;87031;-49
2024/01/28 04:40:41;;;;;;;;;;;1.80;87.90;;;;;;5006609;28;87732;-49
2024/01/28 04:43:07;;;;;;;;;;;1.70;87.90;;;;;;5006419;28;87090;-49
2024/01/28 04:45:32;;;;;;;;;;;1.80;88.50;;;;;;5009387;28;86934;-49
2024/01/28 04:47:58;;;;;;;;;;;1.80;87.80;;;;;;5006046;28;88014;-49
2024/01/28 04:50:24;;;;;;;;;;;1.80;87.80;;;;;;5005672;28;86997;-51
2024/01/28 04:52:50;;;;;;;;;;;1.80;87.80;;;;;;5005383;28;87477;-49
2024/01/28 04:55:15;;;;;;;;;;;1.80;87.90;;;;;;5008428;28;86929;-50
2024/01/28 04:57:41;;;;;;;;;;;1.80;87.90;;;;;;5009661;28;86969;-49
2024/01/28 05:00:10;;;;;;;;;;;1.80;88.70;;;;;;5008396;28;88672;-51
2024/01/28 05:02:38;;;;;;;;;;;1.70;88.10;;;;;;5008719;28;86934;-51
2024/01/28 05:05:04;;;;;;;;;;;1.80;88.10;;;;;;5006813;28;86770;-49
2024/01/28 05:07:30;;;;;;;;;;;1.80;88.10;;;;;;5011154;28;88496;-50
2024/01/28 05:09:55;;;;;;;;;;;1.70;88.10;;;;;;5009795;28;87095;-49
2024/01/28 05:12:21;;;;;;;;;;;1.70;88.00;;;;;;5008333;28;88389;-50
2024/01/28 05:14:47;;;;;;;;;;;1.70;88.10;;;;;;5009451;28;87093;-49
2024/01/28 05:17:12;;;;;;;;;;;1.70;88.00;;;;;;5009544;28;86932;-49
2024/01/28 05:19:38;;;;;;;;;;;1.80;88.10;;;;;;5008907;28;87565;-49
2024/01/28 05:22:04;;;;;;;;;;;1.70;88.00;;;;;;5007202;28;86939;-48
2024/01/28 05:24:30;;;;;;;;;;;1.70;88.00;;;;;;5009706;28;86880;-52
2024/01/28 05:26:55;;;;;;;;;;;1.70;88.00;;;;;;5009368;28;87551;-49
2024/01/28 05:29:21;;;;;;;;;;;1.70;88.20;;;;;;5013032;28;86279;-50
2024/01/28 05:31:46;;;;;;;;;;;1.70;88.20;;;;;;5009296;28;87426;-49
2024/01/28 05:34:12;;;;;;;;;;;1.70;88.30;;;;;;5009369;28;87218;-50
2024/01/28 05:36:37;;;;;;;;;;;1.70;88.20;;;;;;5007786;28;87902;-51
2024/01/28 05:39:03;;;;;;;;;;;1.70;88.20;;;;;;5009101;28;87514;-49
2024/01/28 05:41:29;;;;;;;;;;;1.70;88.10;;;;;;5009184;28;86928;-49
2024/01/28 05:43:54;;;;;;;;;;;1.70;88.00;;;;;;5009271;28;86906;-48
2024/01/28 05:46:20;;;;;;;;;;;1.70;88.10;;;;;;5009050;28;87639;-51
2024/01/28 05:48:46;;;;;;;;;;;1.70;88.20;;;;;;5012288;28;86916;-48
2024/01/28 05:51:12;;;;;;;;;;;1.70;88.30;;;;;;5008758;28;87611;-50
2024/01/28 05:53:37;;;;;;;;;;;1.60;88.20;;;;;;5008436;28;86354;-49
2024/01/28 05:56:04;;;;;;;;;;;1.70;88.20;;;;;;5009001;28;87042;-48
2024/01/28 05:58:29;;;;;;;;;;;1.70;88.30;;;;;;5004778;28;88631;-50
2024/01/28 06:00:55;;;;;;;;;;;1.70;88.20;;;;;;5008541;28;88003;-51
2024/01/28 06:03:20;;;;;;;;;;;1.70;88.20;;;;;;5009002;28;89193;-50
2024/01/28 06:05:46;;;;;;;;;;;1.70;88.10;;;;;;5007839;28;87501;-49
2024/01/28 06:08:13;;;;;;;;;;;1.70;88.00;;;;;;5008113;28;87016;-48
2024/01/28 06:10:39;;;;;;;;;;;1.70;88.00;;;;;;5007965;28;87055;-49
2024/01/28 06:13:04;;;;;;;;;;;1.70;88.00;;;;;;5007818;28;87081;-50
2024/01/28 06:15:32;;;;;;;;;;;1.70;88.10;;;;;;5009128;28;86865;-52
2024/01/28 06:17:57;;;;;;;;;;;1.70;88.10;;;;;;5009104;28;86635;-49
2024/01/28 06:20:23;;;;;;;;;;;1.70;88.00;;;;;;5008701;28;87098;-49
2024/01/28 06:22:48;;;;;;;;;;;1.70;88.00;;;;;;5007874;28;87779;-49
2024/01/28 06:25:14;;;;;;;;;;;1.70;88.00;;;;;;5007880;28;88396;-49
2024/01/28 06:27:40;;;;;;;;;;;1.70;88.00;;;;;;5008578;28;87086;-49
2024/01/28 06:30:05;;;;;;;;;;;1.60;87.90;;;;;;5008774;28;86906;-52
2024/01/28 06:32:32;;;;;;;;;;;1.70;87.90;;;;;;5011156;28;87388;-49
2024/01/28 06:34:57;;;;;;;;;;;1.60;88.00;;;;;;5008406;28;87934;-49
2024/01/28 06:37:23;;;;;;;;;;;1.60;88.10;;;;;;5007415;28;87008;-51
2024/01/28 06:39:51;;;;;;;;;;;1.60;88.10;;;;;;5006372;28;87000;-49
2024/01/28 06:42:18;;;;;;;;;;;1.60;88.10;;;;;;5007247;28;87831;-49
2024/01/28 06:44:44;;;;;;;;;;;1.60;88.00;;;;;;5007600;28;88737;-48
2024/01/28 06:47:09;;;;;;;;;;;1.60;88.00;;;;;;5006417;28;87012;-49
2024/01/28 06:49:35;;;;;;;;;;;1.60;88.00;;;;;;5007840;28;87793;-49
2024/01/28 06:52:01;;;;;;;;;;;1.60;88.00;;;;;;5007922;28;87337;-49
2024/01/28 06:54:27;;;;;;;;;;;1.60;87.90;;;;;;5010250;28;87058;-50
2024/01/28 06:56:52;;;;;;;;;;;1.60;88.00;;;;;;5007619;28;87531;-48
2024/01/28 06:59:20;;;;;;;;;;;1.60;88.00;;;;;;5008210;28;87184;-49
2024/01/28 07:01:46;;;;;;;;;;;1.70;88.00;;;;;;5007431;28;86970;-49
2024/01/28 07:04:11;;;;;;;;;;;1.60;88.10;;;;;;5007387;28;87459;-50
2024/01/28 07:06:37;;;;;;;;;;;1.60;88.00;;;;;;5008550;28;86232;-48
2024/01/28 07:09:03;;;;;;;;;;;1.60;88.00;;;;;;5004664;28;87062;-50
2024/01/28 07:11:28;;;;;;;;;;;1.60;88.00;;;;;;5007209;28;87463;-52
2024/01/28 07:13:54;;;;;;;;;;;1.60;88.10;;;;;;5007418;28;88504;-49
2024/01/28 07:16:19;;;;;;;;;;;1.60;88.10;;;;;;5009089;28;90292;-49
2024/01/28 07:18:45;;;;;;;;;;;1.60;88.10;;;;;;5007062;28;87083;-49
2024/01/28 07:21:11;;;;;;;;;;;1.60;88.00;;;;;;5007880;28;86941;-50
2024/01/28 07:23:37;;;;;;;;;;;1.60;88.10;;;;;;5005966;28;87645;-50
2024/01/28 07:26:03;;;;;;;;;;;1.60;88.10;;;;;;5007688;27;87498;-48
2024/01/28 07:28:28;;;;;;;;;;;1.60;88.10;;;;;;5007568;28;87570;-50
2024/01/28 07:30:54;;;;;;;;;;;1.70;88.00;;;;;;5008029;28;86800;-51
2024/01/28 07:33:19;;;;;;;;;;;1.60;87.90;;;;;;5007713;28;87041;-50
2024/01/28 07:35:45;;;;;;;;;;;1.60;88.20;;;;;;5007489;28;86851;-49
2024/01/28 07:38:11;;;;;;;;;;;1.60;88.10;;;;;;5007783;28;88272;-52
2024/01/28 07:40:37;;;;;;;;;;;1.70;88.10;;;;;;5003508;28;87654;-50
2024/01/28 07:43:03;;;;;;;;;;;1.60;88.10;;;;;;5006493;28;87444;-49
2024/01/28 07:45:29;;;;;;;;;;;1.60;88.10;;;;;;5006061;28;86984;-51
2024/01/28 07:47:54;;;;;;;;;;;1.70;88.10;;;;;;5007011;28;87006;-50
2024/01/28 07:50:20;;;;;;;;;;;1.60;88.10;;;;;;5005538;28;87269;-49
2024/01/28 07:52:46;;;;;;;;;;;1.60;88.20;;;;;;5007064;28;86984;-51
2024/01/28 07:55:12;;;;;;;;;;;1.70;88.10;;;;;;5003658;28;86736;-50
2024/01/28 07:57:37;;;;;;;;;;;1.70;88.00;;;;;;5009338;28;87593;-52
2024/01/28 08:00:06;;;;;;;;;;;1.70;88.00;;;;;;5007706;28;87034;-49
2024/01/28 08:02:32;;;;;;;;;;;1.60;88.10;;;;;;5006055;28;89464;-51
2024/01/28 08:04:58;;;;;;;;;;;1.60;88.20;;;;;;5007382;28;87084;-49
2024/01/28 08:07:25;;;;;;;;;;;1.70;88.00;;;;;;5006932;28;88146;-50
2024/01/28 08:09:51;;;;;;;;;;;1.70;88.10;;;;;;5003676;28;88325;-50
2024/01/28 08:12:16;;;;;;;;;;;1.60;88.00;;;;;;5006302;28;87143;-49
2024/01/28 08:14:42;;;;;;;;;;;1.60;88.10;;;;;;5006502;28;87011;-51
2024/01/28 08:17:08;;;;;;;;;;;1.70;88.10;;;;;;5006381;28;86871;-51
2024/01/28 08:19:34;;;;;;;;;;;1.60;88.00;;;;;;5009916;28;87719;-49
2024/01/28 08:22:00;;;;;;;;;;;1.60;88.00;;;;;;5005425;28;88551;-51
2024/01/28 08:24:25;;;;;;;;;;;1.60;88.00;;;;;;5006145;28;87219;-52
2024/01/28 08:26:51;;;;;;;;;;;1.60;88.10;;;;;;5006342;28;87934;-53
2024/01/28 08:29:17;;;;;;;;;;;1.60;88.10;;;;;;5005049;28;88641;-48
2024/01/28 08:31:42;;;;;;;;;;;1.70;88.00;;;;;;5003898;28;87040;-48
2024/01/28 08:34:08;;;;;;;;;;;1.60;87.80;;;;;;5006383;28;86940;-49
2024/01/28 08:36:33;;;;;;;;;;;1.60;88.00;;;;;;5006327;28;88426;-51
2024/01/28 08:38:59;;;;;;;;;;;1.60;88.00;;;;;;5004724;28;86981;-50
2024/01/28 08:41:24;;;;;;;;;;;1.70;87.90;;;;;;5008721;28;87300;-49
2024/01/28 08:43:50;;;;;;;;;;;1.60;88.00;;;;;;5006332;28;86274;-50
2024/01/28 08:46:16;;;;;;;;;;;1.60;88.00;;;;;;5005976;28;87131;-52
2024/01/28 08:48:41;;;;;;;;;;;1.60;88.10;;;;;;5000907;28;88446;-48
2024/01/28 08:51:07;;;;;;;;;;;1.60;88.10;;;;;;5005938;28;87997;-49
2024/01/28 08:53:32;;;;;;;;;;;1.70;88.10;;;;;;5005698;28;87630;-50
2024/01/28 08:55:58;;;;;;;;;;;1.70;88.00;;;;;;5004333;28;87628;-50
2024/01/28 08:58:24;;;;;;;;;;;1.70;87.90;;;;;;5005990;28;87348;-49
2024/01/28 09:00:49;;;;;;;;;;;1.60;88.00;;;;;;5006544;28;86994;-50
2024/01/28 09:03:15;;;;;;;;;;;1.60;88.10;;;;;;5009061;28;87407;-53
2024/01/28 09:05:40;;;;;;;;;;;1.60;88.10;;;;;;5006333;28;86870;-52
2024/01/28 09:08:06;;;;;;;;;;;1.60;88.00;;;;;;5005855;28;87902;-48
2024/01/28 09:10:31;;;;;;;;;;;1.60;88.10;;;;;;5005136;28;87043;-54
2024/01/28 09:12:57;;;;;;;;;;;1.60;88.10;;;;;;5005533;28;86997;-50
2024/01/28 09:15:23;;;;;;;;;;;1.60;87.90;;;;;;5004990;28;88389;-52
2024/01/28 09:17:49;;;;;;;;;;;1.70;88.00;;;;;;5005981;28;87025;-49
2024/01/28 09:20:14;;;;;;;;;;;1.60;88.10;;;;;;5006187;28;87083;-49
2024/01/28 09:22:40;;;;;;;;;;;1.60;88.10;;;;;;5001470;28;87407;-50
2024/01/28 09:25:06;;;;;;;;;;;1.60;88.10;;;;;;5006259;28;86961;-50
2024/01/28 09:27:31;;;;;;;;;;;1.60;88.30;;;;;;5005078;28;89077;-50
2024/01/28 09:29:57;;;;;;;;;;;1.60;88.10;;;;;;5005323;28;87065;-49
2024/01/28 09:32:26;;;;;;;;;;;1.60;88.10;;;;;;5002491;28;86631;-49
2024/01/28 09:34:51;;;;;;;;;;;1.60;88.10;;;;;;5004567;28;86972;-49
2024/01/28 09:37:18;;;;;;;;;;;1.60;88.10;;;;;;5005318;28;86990;-50
2024/01/28 09:39:44;;;;;;;;;;;1.60;88.10;;;;;;5004853;28;88037;-49
2024/01/28 09:42:11;;;;;;;;;;;1.60;88.10;;;;;;5005045;28;86934;-50
2024/01/28 09:44:37;;;;;;;;;;;1.60;88.10;;;;;;5007649;28;86982;-48
2024/01/28 09:47:03;;;;;;;;;;;1.60;88.10;;;;;;5010329;28;88363;-49
2024/01/28 09:49:30;;;;;;;;;;;1.60;88.20;;;;;;5008647;28;87058;-52
2024/01/28 09:51:56;;;;;;;;;;;1.60;88.10;;;;;;5009081;28;87878;-49
2024/01/28 09:54:22;;;;;;;;;;;1.60;88.00;;;;;;5008985;28;87506;-48
2024/01/28 09:56:48;;;;;;;;;;;1.60;88.00;;;;;;5009264;28;86275;-52
2024/01/28 09:59:16;;;;;;;;;;;1.60;88.10;;;;;;5008500;28;87946;-50
2024/01/28 10:01:42;;;;;;;;;;;1.60;88.20;;;;;;5007807;28;87669;-49
2024/01/28 10:04:10;;;;;;;;;;;1.60;88.20;;;;;;5007993;28;87932;-48
2024/01/28 10:06:36;;;;;;;;;;;1.60;88.10;;;;;;5011222;28;88758;-50
2024/01/28 10:09:01;;;;;;;;;;;1.60;88.00;;;;;;5008170;28;87020;-50
2024/01/28 10:11:27;;;;;;;;;;;1.60;88.10;;;;;;5008909;28;87027;-49
2024/01/28 10:13:53;;;;;;;;;;;1.60;88.00;;;;;;5004324;28;87455;-52
2024/01/28 10:16:23;;;;;;;;;;;1.60;88.10;;;;;;5007089;28;87635;-52
2024/01/28 10:18:49;;;;;;;;;;;1.60;88.10;;;;;;5008082;28;87873;-48
2024/01/28 10:21:14;;;;;;;;;;;1.60;88.10;;;;;;5008286;28;86605;-49
2024/01/28 10:23:42;;;;;;;;;;;1.60;88.20;;;;;;5008788;28;87158;-50
2024/01/28 10:26:08;;;;;;;;;;;1.60;88.20;;;;;;5008290;28;86912;-50
2024/01/28 10:28:37;;;;;;;;;;;1.60;88.10;;;;;;5010576;28;88499;-50
2024/01/28 10:31:03;;;;;;;;;;;1.60;88.00;;;;;;5008029;28;87760;-49
2024/01/28 10:33:28;;;;;;;;;;;1.60;88.00;;;;;;5007785;28;88464;-49
2024/01/28 10:35:55;;;;;;;;;;;1.60;88.00;;;;;;5008503;28;86933;-50
2024/01/28 10:38:21;;;;;;;;;;;1.60;88.10;;;;;;5008578;28;87543;-49
2024/01/28 10:40:47;;;;;;;;;;;1.60;88.10;;;;;;5006796;28;86917;-49
2024/01/28 10:43:15;;;;;;;;;;;1.60;87.90;;;;;;5007452;28;87069;-50
2024/01/28 10:45:44;;;;;;;;;;;1.60;88.00;;;;;;5006867;28;86244;-50
2024/01/28 10:48:16;;;;;;;;;;;1.60;88.00;;;;;;5003399;28;88454;-47
2024/01/28 10:50:41;;;;;;;;;;;1.60;87.90;;;;;;5010999;28;86857;-49
2024/01/28 10:53:08;;;;;;;;;;;1.60;88.00;;;;;;5005420;28;88285;-50
2024/01/28 10:55:34;;;;;;;;;;;1.60;88.10;;;;;;5008165;28;86977;-50
2024/01/28 10:58:00;;;;;;;;;;;1.60;88.10;;;;;;5004376;28;87852;-49
2024/01/28 11:00:28;;;;;;;;;;;1.70;88.00;;;;;;5006454;28;87744;-49
2024/01/28 11:02:56;;;;;;;;;;;1.60;88.10;;;;;;5007648;28;87097;-52
2024/01/28 11:05:22;;;;;;;;;;;1.60;88.10;;;;;;5007369;28;88127;-50
2024/01/28 11:07:49;;;;;;;;;;;1.60;88.00;;;;;;5004064;28;86863;-49
2024/01/28 11:10:16;;;;;;;;;;;1.60;88.10;;;;;;5008223;28;86274;-51
2024/01/28 11:12:42;;;;;;;;;;;1.70;88.20;;;;;;5010068;28;87117;-49
2024/01/28 11:15:13;;;;;;;;;;;1.60;88.00;;;;;;5007090;28;86967;-48
2024/01/28 11:17:39;;;;;;;;;;;1.60;88.10;;;;;;5006634;28;87913;-51
2024/01/28 11:20:05;;;;;;;;;;;1.60;88.10;;;;;;5007550;28;87460;-49
2024/01/28 11:22:44;;;;;;;;;;;1.60;88.10;;;;;;5007373;28;87017;-50
2024/01/28 11:25:09;;;;;;;;;;;1.60;88.10;;;;;;5003299;28;86958;-52
2024/01/28 11:27:37;;;;;;;;;;;1.60;88.70;;;;;;5004833;28;87501;-48
2024/01/28 11:30:03;;;;;;;;;;;1.60;88.40;;;;;;5007231;28;86915;-48
2024/01/28 11:32:32;;;;;;;;;;;1.60;88.20;;;;;;5002203;28;87953;-51
2024/01/28 11:34:57;;;;;;;;;;;1.60;88.20;;;;;;5010212;28;89418;-50
2024/01/28 11:37:26;;;;;;;;;;;1.60;88.10;;;;;;5007002;28;88598;-51
2024/01/28 11:39:55;;;;;;;;;;;1.70;88.30;;;;;;5006904;28;88388;-48
2024/01/28 11:42:20;;;;;;;;;;;1.60;88.30;;;;;;5006973;28;87743;-49
2024/01/28 11:44:46;;;;;;;;;;;1.70;88.20;;;;;;5006539;28;87813;-48
2024/01/28 11:47:17;;;;;;;;;;;1.60;88.10;;;;;;5005713;28;87278;-48
2024/01/28 11:49:43;;;;;;;;;;;1.70;88.10;;;;;;5004689;28;87645;-49
2024/01/28 11:52:09;;;;;;;;;;;1.70;88.20;;;;;;5007364;28;87899;-50
2024/01/28 11:54:35;;;;;;;;;;;1.60;88.00;;;;;;5006912;28;88481;-49
2024/01/28 11:57:00;;;;;;;;;;;1.60;88.10;;;;;;5010006;28;86839;-49
2024/01/28 11:59:26;;;;;;;;;;;1.60;88.20;;;;;;5007392;28;86153;-49
2024/01/28 12:01:52;;;;;;;;;;;1.60;88.30;;;;;;5006706;28;87000;-52
2024/01/28 12:04:19;;;;;;;;;;;1.60;88.20;;;;;;5006237;28;87893;-50
2024/01/28 12:06:44;;;;;;;;;;;1.70;88.20;;;;;;5002228;28;88450;-52
2024/01/28 12:09:10;;;;;;;;;;;1.70;88.20;;;;;;5006298;28;86925;-48
2024/01/28 12:11:36;;;;;;;;;;;1.70;88.20;;;;;;5006462;28;87876;-50
2024/01/28 12:14:02;;;;;;;;;;;1.60;88.10;;;;;;5006613;28;87395;-49
2024/01/28 12:16:27;;;;;;;;;;;1.60;88.20;;;;;;5009241;28;87011;-52
2024/01/28 12:18:53;;;;;;;;;;;1.60;88.20;;;;;;5003416;28;87343;-48
2024/01/28 12:21:23;;;;;;;;;;;1.70;88.30;;;;;;5005473;28;87021;-50
2024/01/28 12:24:02;;;;;;;;;;;1.60;88.30;;;;;;5006780;28;88412;-48
2024/01/28 12:26:29;;;;;;;;;;;1.60;88.20;;;;;;5003102;28;88606;-53
2024/01/28 12:28:55;;;;;;;;;;;1.60;88.40;;;;;;5006785;28;86887;-50
2024/01/28 12:31:21;;;;;;;;;;;1.60;88.30;;;;;;5002495;28;88185;-49
2024/01/28 12:33:47;;;;;;;;;;;1.70;88.40;;;;;;5005406;28;87455;-60
2024/01/28 12:36:13;;;;;;;;;;;1.60;88.20;;;;;;5006773;28;86983;-52
2024/01/28 12:38:38;;;;;;;;;;;1.60;88.10;;;;;;5009008;28;86858;-50
2024/01/28 12:41:07;;;;;;;;;;;1.60;88.40;;;;;;5006742;28;87253;-52
2024/01/28 12:43:33;;;;;;;;;;;1.60;88.60;;;;;;5006519;28;87750;-56
2024/01/28 12:45:58;;;;;;;;;;;1.60;88.50;;;;;;5003417;28;87545;-49
2024/01/28 12:48:24;;;;;;;;;;;1.60;87.90;;;;;;5006708;28;86366;-54
2024/01/28 12:50:50;;;;;;;;;;;1.60;86.30;;;;;;5006068;28;86982;-53
2024/01/28 12:53:17;;;;;;;;;;;1.60;85.70;;;;;;5006284;28;87518;-50
2024/01/28 12:55:43;;;;;;;;;;;1.70;85.70;;;;;;5005814;28;87946;-69
2024/01/28 12:58:09;;;;;;;;;;;1.80;85.80;;;;;;5005790;28;87764;-52
2024/01/28 13:00:35;;;;;;;;;;;1.90;87.20;;;;;;5007873;28;87565;-59
2024/01/28 13:03:00;;;;;;;;;;;2.00;86.80;;;;;;5006386;28;87037;-51
2024/01/28 13:05:26;;;;;;;;;;;1.90;88.00;;;;;;5006114;28;87540;-52
2024/01/28 13:07:51;;;;;;;;;;;2.00;88.00;;;;;;5006428;28;86898;-59
2024/01/28 13:10:17;;;;;;;;;;;2.00;88.30;;;;;;5006184;28;86968;-51
2024/01/28 13:12:43;;;;;;;;;;;2.00;88.30;;;;;;5006263;28;87766;-44
2024/01/28 13:15:09;;;;;;;;;;;2.10;88.30;;;;;;5004966;28;87003;-58
2024/01/28 13:17:38;;;;;;;;;;;2.10;88.10;;;;;;5009367;28;87695;-56
2024/01/28 13:20:04;;;;;;;;;;;2.00;88.50;;;;;;5008251;28;88392;-57
2024/01/28 13:22:30;;;;;;;;;;;2.00;89.00;;;;;;5012137;28;87083;-49
2024/01/28 13:24:56;;;;;;;;;;;2.00;89.00;;;;;;5007558;28;88344;-55
2024/01/28 13:27:21;;;;;;;;;;;2.10;87.20;;;;;;5009332;28;87011;-46
2024/01/28 13:29:47;;;;;;;;;;;2.10;87.60;;;;;;5008970;28;87855;-49
2024/01/28 13:32:13;;;;;;;;;;;2.10;87.40;;;;;;5008359;28;88457;-51
2024/01/28 13:34:39;;;;;;;;;;;2.20;87.00;;;;;;5008331;28;87478;-48
2024/01/28 13:37:05;;;;;;;;;;;2.10;87.20;;;;;;5008882;28;86956;-51
2024/01/28 13:39:30;;;;;;;;;;;2.10;87.30;;;;;;5008235;28;87404;-50
2024/01/28 13:41:56;;;;;;;;;;;2.10;87.40;;;;;;5007547;28;87319;-53
2024/01/28 13:44:21;;;;;;;;;;;2.10;87.50;;;;;;5008847;28;88204;-51
2024/01/28 13:46:47;;;;;;;;;;;2.10;87.60;;;;;;5006729;28;87027;-50
2024/01/28 13:49:13;;;;;;;;;;;2.10;87.60;;;;;;5007811;28;87171;-51
2024/01/28 13:51:38;;;;;;;;;;;2.00;87.60;;;;;;5006907;28;87497;-49
2024/01/28 13:54:04;;;;;;;;;;;2.10;87.70;;;;;;5008115;28;87268;-49
2024/01/28 13:56:31;;;;;;;;;;;2.00;87.60;;;;;;5009155;28;86942;-49
2024/01/28 13:58:57;;;;;;;;;;;2.10;87.70;;;;;;5008953;28;86843;-47
2024/01/28 14:01:23;;;;;;;;;;;2.10;87.70;;;;;;5008971;28;86223;-49
2024/01/28 14:03:49;;;;;;;;;;;2.10;87.60;;;;;;5011560;28;87202;-47
2024/01/28 14:06:15;;;;;;;;;;;2.00;87.70;;;;;;5008642;28;87133;-49
2024/01/28 14:08:40;;;;;;;;;;;2.00;87.80;;;;;;5007169;28;87937;-49
2024/01/28 14:11:06;;;;;;;;;;;2.00;88.00;;;;;;5008325;28;87415;-48
2024/01/28 14:13:31;;;;;;;;;;;2.00;87.80;;;;;;5009052;28;87206;-49
2024/01/28 14:15:57;;;;;;;;;;;2.00;87.90;;;;;;5006268;28;88035;-47
2024/01/28 14:18:22;;;;;;;;;;;2.00;88.10;;;;;;5005689;28;87645;-49
2024/01/28 14:20:48;;;;;;;;;;;2.00;88.10;;;;;;5009048;28;86991;-48
2024/01/28 14:23:14;;;;;;;;;;;1.90;88.20;;;;;;5005679;28;87802;-49